Time;durP1;ratioP1;P1;durP2;ratioP2;P2;SDS_P1;SDS_P2;PMS_P1;PMS_P2;Temp;Humidity;BMP_temperature;BMP_pressure;BME280_temperature;BME280_humidity;BME280_pressure;Samples;Min_cycle;Max_cycle;Signal;HPM_P1;HPM_P2
2023/04/26 00:02:12;;;;;;;7.20;2.10;;;3.90;1.00;;;;;;5035498;28;20423;-49
2023/04/26 00:04:38;;;;;;;4.40;2.10;;;3.80;1.00;;;;;;5034861;28;20516;-49
2023/04/26 00:07:04;;;;;;;7.83;2.00;;;3.80;99.90;;;;;;5035038;28;20766;-49
2023/04/26 00:09:30;;;;;;;13.33;2.87;;;3.80;99.90;;;;;;5034974;28;20417;-49
2023/04/26 00:11:56;;;;;;;8.67;2.13;;;3.80;99.90;;;;;;5035083;28;20214;-49
2023/04/26 00:14:21;;;;;;;8.33;1.83;;;3.80;99.90;;;;;;5034778;28;20772;-49
2023/04/26 00:16:47;;;;;;;10.57;1.83;;;3.80;99.90;;;;;;5035251;28;20211;-48
2023/04/26 00:19:13;;;;;;;17.17;3.40;;;3.80;99.90;;;;;;5035093;28;20244;-49
2023/04/26 00:21:39;;;;;;;19.37;2.60;;;3.90;99.90;;;;;;5034842;28;20264;-48
2023/04/26 00:24:05;;;;;;;7.27;2.00;;;4.00;1.00;;;;;;5034741;28;20218;-49
2023/04/26 00:26:33;;;;;;;13.33;2.13;;;4.00;1.00;;;;;;5034708;28;20410;-49
2023/04/26 00:28:58;;;;;;;11.10;2.20;;;4.00;1.00;;;;;;5035118;28;20422;-48
2023/04/26 00:31:24;;;;;;;11.00;2.60;;;4.00;89.80;;;;;;5034788;28;20509;-49
2023/04/26 00:33:50;;;;;;;7.33;2.03;;;4.00;99.90;;;;;;5034542;28;20183;-50
2023/04/26 00:36:18;;;;;;;11.00;2.13;;;3.90;1.00;;;;;;5034526;28;20650;-49
2023/04/26 00:38:44;;;;;;;9.87;2.00;;;4.00;1.00;;;;;;5034928;28;20415;-49
2023/04/26 00:41:10;;;;;;;7.13;1.90;;;4.00;1.00;;;;;;5034428;28;20416;-49
2023/04/26 00:43:36;;;;;;;9.00;2.33;;;4.00;99.90;;;;;;5034415;28;20462;-48
2023/04/26 00:46:01;;;;;;;14.97;3.03;;;4.00;99.90;;;;;;5034313;28;20660;-49
2023/04/26 00:48:27;;;;;;;7.63;2.13;;;3.90;99.90;;;;;;5033693;28;20258;-49
2023/04/26 00:50:54;;;;;;;10.17;2.10;;;3.90;99.90;;;;;;5034288;28;20426;-48
2023/04/26 00:53:20;;;;;;;8.60;2.40;;;3.90;99.90;;;;;;5034484;28;20422;-48
2023/04/26 00:55:46;;;;;;;4.27;2.20;;;4.00;51.70;;;;;;5034391;28;20488;-49
2023/04/26 00:58:12;;;;;;;12.57;2.63;;;4.00;1.00;;;;;;5034281;28;20891;-49
2023/04/26 01:00:38;;;;;;;6.00;2.10;;;4.00;1.00;;;;;;5034109;28;21001;-49
2023/04/26 01:03:03;;;;;;;6.97;2.33;;;4.00;1.00;;;;;;5034216;28;20179;-48
2023/04/26 01:05:29;;;;;;;6.77;1.93;;;4.00;99.90;;;;;;5034376;28;20180;-49
2023/04/26 01:07:55;;;;;;;9.43;2.73;;;4.00;99.90;;;;;;5034508;28;20188;-48
2023/04/26 01:10:20;;;;;;;12.90;2.87;;;4.00;99.90;;;;;;5034023;28;20182;-49
2023/04/26 01:12:47;;;;;;;11.50;2.87;;;4.00;99.90;;;;;;5033974;28;20190;-49
2023/04/26 01:15:12;;;;;;;9.10;2.90;;;4.00;99.90;;;;;;5034205;28;20190;-48
2023/04/26 01:17:38;;;;;;;16.70;5.00;;;3.90;99.90;;;;;;5033984;28;20748;-49
2023/04/26 01:20:07;;;;;;;7.80;3.10;;;3.90;99.90;;;;;;5033875;28;20197;-48
2023/04/26 01:22:33;;;;;;;10.83;3.20;;;3.90;1.00;;;;;;5033633;28;20654;-49
2023/04/26 01:25:02;;;;;;;14.20;3.80;;;3.80;1.00;;;;;;5033685;28;20462;-50
2023/04/26 01:27:28;;;;;;;12.60;3.17;;;3.80;1.00;;;;;;5033765;28;20422;-49
2023/04/26 01:29:53;;;;;;;13.50;5.70;;;3.80;1.00;;;;;;5033676;28;20415;-49
2023/04/26 01:32:19;;;;;;;19.63;4.33;;;3.70;1.00;;;;;;5033513;28;20179;-49
2023/04/26 01:34:45;;;;;;;15.80;3.53;;;3.70;99.90;;;;;;5033617;28;20184;-49
2023/04/26 01:37:11;;;;;;;8.97;3.70;;;3.70;99.90;;;;;;5033454;28;20532;-49
2023/04/26 01:39:36;;;;;;;10.90;4.10;;;3.60;1.00;;;;;;5033849;28;20190;-49
2023/04/26 01:42:03;;;;;;;12.07;4.30;;;3.60;1.00;;;;;;5033342;28;20266;-48
2023/04/26 01:44:29;;;;;;;14.90;3.80;;;3.60;1.00;;;;;;5033575;28;20211;-49
2023/04/26 01:46:55;;;;;;;15.87;4.40;;;3.50;1.00;;;;;;5032236;28;20509;-49
2023/04/26 01:49:21;;;;;;;20.77;4.70;;;3.50;10.70;;;;;;5033720;28;20478;-48
2023/04/26 01:51:46;;;;;;;8.10;3.50;;;3.50;99.90;;;;;;5033660;28;20184;-49
2023/04/26 01:54:12;;;;;;;9.20;3.70;;;3.50;99.90;;;;;;5033401;28;20187;-48
2023/04/26 01:56:37;;;;;;;17.07;4.27;;;3.50;1.00;;;;;;5033235;28;20180;-48
2023/04/26 01:59:03;;;;;;;11.80;4.43;;;3.50;1.00;;;;;;5036237;28;20632;-49
2023/04/26 02:01:28;;;;;;;9.70;4.10;;;3.50;1.00;;;;;;5037414;28;20180;-49
2023/04/26 02:03:54;;;;;;;14.97;4.40;;;3.60;99.90;;;;;;5037770;28;20207;-48
2023/04/26 02:06:23;;;;;;;9.43;4.30;;;3.60;99.90;;;;;;5037348;28;20179;-49
2023/04/26 02:08:48;;;;;;;11.50;4.00;;;3.50;23.60;;;;;;5035976;28;20596;-49
2023/04/26 02:11:14;;;;;;;12.50;4.00;;;3.60;99.90;;;;;;5037372;28;20440;-49
2023/04/26 02:13:40;;;;;;;20.23;4.03;;;3.60;1.00;;;;;;5037416;28;20191;-48
2023/04/26 02:16:06;;;;;;;11.33;3.83;;;3.60;1.00;;;;;;5037526;28;20189;-48
2023/04/26 02:18:33;;;;;;;8.70;3.60;;;3.60;1.00;;;;;;5037465;28;20183;-49
2023/04/26 02:20:58;;;;;;;15.33;3.77;;;3.70;99.90;;;;;;5037523;28;20418;-48
2023/04/26 02:23:24;;;;;;;13.77;4.30;;;3.70;1.00;;;;;;5037187;28;20425;-49
2023/04/26 02:25:50;;;;;;;11.53;4.30;;;3.70;43.30;;;;;;5037475;28;20187;-49
2023/04/26 02:28:16;;;;;;;16.50;4.93;;;3.70;1.00;;;;;;5036873;28;20185;-48
2023/04/26 02:30:42;;;;;;;9.00;2.63;;;3.70;1.00;;;;;;5036925;28;20187;-48
2023/04/26 02:33:07;;;;;;;11.97;3.57;;;3.80;99.90;;;;;;5036605;28;20426;-49
2023/04/26 02:35:35;;;;;;;8.93;3.30;;;3.70;99.90;;;;;;5037054;28;20414;-48
2023/04/26 02:38:00;;;;;;;5.57;2.37;;;3.70;99.90;;;;;;5036805;28;20421;-48
2023/04/26 02:40:26;;;;;;;7.27;2.40;;;3.60;99.90;;;;;;5036831;28;20418;-48
2023/04/26 02:42:51;;;;;;;5.70;2.43;;;3.60;58.80;;;;;;5036794;28;20176;-48
2023/04/26 02:45:17;;;;;;;8.83;3.93;;;3.50;1.00;;;;;;5036363;28;20652;-48
2023/04/26 02:47:42;;;;;;;10.20;3.10;;;3.40;99.90;;;;;;5036599;28;20230;-48
2023/04/26 02:50:08;;;;;;;9.70;2.70;;;3.40;1.00;;;;;;5036687;28;20645;-48
2023/04/26 02:52:35;;;;;;;7.93;3.47;;;3.40;1.30;;;;;;5036607;28;20179;-48
2023/04/26 02:55:03;;;;;;;6.63;3.50;;;3.30;1.00;;;;;;5036621;28;20835;-48
2023/04/26 02:57:28;;;;;;;10.97;3.27;;;3.20;1.00;;;;;;5036568;28;20484;-48
2023/04/26 02:59:54;;;;;;;9.27;3.97;;;3.20;1.00;;;;;;5036322;28;20453;-48
2023/04/26 03:02:20;;;;;;;7.57;3.77;;;3.20;99.90;;;;;;5036635;28;20557;-48
2023/04/26 03:04:46;;;;;;;12.87;4.23;;;3.30;1.00;;;;;;5036368;28;20227;-48
2023/04/26 03:07:12;;;;;;;12.73;4.70;;;3.30;1.00;;;;;;5035974;28;20578;-48
2023/04/26 03:09:38;;;;;;;14.37;4.73;;;3.30;1.00;;;;;;5035892;28;20480;-48
2023/04/26 03:12:05;;;;;;;14.07;5.27;;;3.30;1.00;;;;;;5036312;28;20433;-48
2023/04/26 03:14:32;;;;;;;10.10;4.73;;;3.30;1.00;;;;;;5036309;28;20195;-48
2023/04/26 03:16:58;;;;;;;13.00;4.87;;;3.40;1.00;;;;;;5036287;28;20418;-48
2023/04/26 03:19:24;;;;;;;11.00;5.07;;;3.40;1.00;;;;;;5035914;28;20421;-48
2023/04/26 03:21:49;;;;;;;17.73;5.47;;;3.40;1.00;;;;;;5036133;28;20410;-48
2023/04/26 03:24:15;;;;;;;16.57;4.57;;;3.40;1.00;;;;;;5035773;28;20788;-49
2023/04/26 03:26:40;;;;;;;16.30;5.10;;;3.30;1.00;;;;;;5035942;28;20175;-48
2023/04/26 03:29:06;;;;;;;14.30;4.40;;;3.30;1.00;;;;;;5035930;28;20178;-48
2023/04/26 03:31:32;;;;;;;9.40;3.60;;;3.20;1.00;;;;;;5035944;28;20180;-48
2023/04/26 03:33:57;;;;;;;10.63;4.70;;;3.20;1.00;;;;;;5035768;28;20265;-48
2023/04/26 03:36:23;;;;;;;9.37;4.50;;;3.20;1.00;;;;;;5035775;28;20186;-48
2023/04/26 03:38:48;;;;;;;9.83;3.90;;;3.20;1.00;;;;;;5035687;28;20609;-48
2023/04/26 03:41:15;;;;;;;9.57;3.27;;;3.10;7.20;;;;;;5035809;28;20185;-48
2023/04/26 03:43:41;;;;;;;16.90;4.90;;;3.10;34.60;;;;;;5035868;28;20556;-48
2023/04/26 03:46:06;;;;;;;13.73;4.20;;;3.10;69.60;;;;;;5035523;28;20426;-48
2023/04/26 03:48:32;;;;;;;10.93;3.80;;;3.10;93.80;;;;;;5035603;28;20237;-48
2023/04/26 03:50:57;;;;;;;18.83;4.03;;;3.20;99.90;;;;;;5035376;28;20207;-48
2023/04/26 03:53:23;;;;;;;9.43;3.53;;;3.20;99.90;;;;;;5036012;28;20619;-48
2023/04/26 03:55:49;;;;;;;14.47;3.70;;;3.20;99.90;;;;;;5035352;28;20624;-48
2023/04/26 03:58:14;;;;;;;14.03;4.00;;;3.20;99.90;;;;;;5035611;28;20206;-48
2023/04/26 04:00:41;;;;;;;6.37;3.50;;;3.20;99.90;;;;;;5035464;28;20195;-48
2023/04/26 04:03:07;;;;;;;18.00;3.90;;;3.20;99.90;;;;;;5035350;28;20187;-48
2023/04/26 04:05:32;;;;;;;15.27;3.90;;;3.20;99.90;;;;;;5034799;28;20477;-48
2023/04/26 04:07:58;;;;;;;13.40;3.60;;;3.20;99.90;;;;;;5035134;28;20186;-49
2023/04/26 04:10:24;;;;;;;7.63;3.50;;;3.20;99.90;;;;;;5034874;28;20192;-48
2023/04/26 04:12:50;;;;;;;6.70;3.77;;;3.30;99.90;;;;;;5034980;28;20293;-48
2023/04/26 04:15:17;;;;;;;11.00;4.03;;;3.30;99.90;;;;;;5034696;28;20187;-48
2023/04/26 04:17:43;;;;;;;11.07;3.80;;;3.40;99.90;;;;;;5034968;28;20418;-48
2023/04/26 04:20:09;;;;;;;8.70;4.20;;;3.40;71.70;;;;;;5035257;28;20427;-47
2023/04/26 04:22:35;;;;;;;11.80;4.30;;;3.30;35.10;;;;;;5035054;28;20278;-48
2023/04/26 04:25:03;;;;;;;14.20;4.60;;;3.30;8.40;;;;;;5034932;28;20541;-48
2023/04/26 04:27:29;;;;;;;8.23;4.60;;;3.20;1.50;;;;;;5034633;28;20241;-48
2023/04/26 04:29:54;;;;;;;14.13;5.00;;;3.30;1.10;;;;;;5035033;28;20422;-48
2023/04/26 04:32:22;;;;;;;13.23;5.27;;;3.20;2.50;;;;;;5034995;28;20609;-48
2023/04/26 04:34:47;;;;;;;8.93;4.70;;;3.20;3.70;;;;;;5034448;28;20612;-48
2023/04/26 04:37:13;;;;;;;22.33;6.30;;;3.20;4.80;;;;;;5034808;28;20414;-48
2023/04/26 04:39:38;;;;;;;14.60;5.30;;;3.20;3.20;;;;;;5034355;28;20258;-48
2023/04/26 04:42:04;;;;;;;19.83;6.20;;;3.10;18.30;;;;;;5034832;28;20179;-48
2023/04/26 04:44:30;;;;;;;22.20;5.80;;;3.10;37.70;;;;;;5034612;28;20291;-48
2023/04/26 04:46:55;;;;;;;13.37;6.20;;;3.20;77.40;;;;;;5034362;28;20180;-48
2023/04/26 04:49:23;;;;;;;13.23;5.30;;;3.20;99.90;;;;;;5034290;28;20242;-48
2023/04/26 04:51:49;;;;;;;18.97;5.07;;;3.30;99.90;;;;;;5034592;28;20175;-48
2023/04/26 04:54:17;;;;;;;12.30;5.03;;;3.40;99.90;;;;;;5034393;28;20422;-47
2023/04/26 04:56:43;;;;;;;28.60;5.93;;;3.50;99.90;;;;;;5034542;28;20419;-48
2023/04/26 04:59:09;;;;;;;17.70;6.23;;;3.50;99.90;;;;;;5034234;28;20933;-48
2023/04/26 05:01:36;;;;;;;22.87;6.23;;;3.60;99.90;;;;;;5034035;28;20425;-47
2023/04/26 05:04:02;;;;;;;20.57;5.47;;;3.70;99.90;;;;;;5034097;28;20472;-47
2023/04/26 05:06:28;;;;;;;10.07;4.90;;;3.80;99.90;;;;;;5033882;28;20910;-47
2023/04/26 05:08:55;;;;;;;11.43;4.47;;;3.80;77.10;;;;;;5034248;28;20417;-47
2023/04/26 05:11:20;;;;;;;11.63;4.40;;;3.80;16.40;;;;;;5034316;28;20831;-48
2023/04/26 05:13:46;;;;;;;13.20;5.03;;;3.90;1.00;;;;;;5034235;28;20418;-48
2023/04/26 05:16:12;;;;;;;14.57;5.23;;;3.90;1.00;;;;;;5033833;28;20737;-47
2023/04/26 05:18:38;;;;;;;9.73;4.60;;;4.00;1.00;;;;;;5033883;28;20420;-47
2023/04/26 05:21:03;;;;;;;9.50;4.87;;;4.10;1.00;;;;;;5034101;28;20253;-48
2023/04/26 05:23:30;;;;;;;10.37;4.00;;;4.00;99.90;;;;;;5033844;28;20546;-47
2023/04/26 05:25:56;;;;;;;20.83;5.23;;;4.10;99.90;;;;;;5033784;28;20203;-49
2023/04/26 05:28:22;;;;;;;13.40;4.60;;;4.10;99.90;;;;;;5033825;28;20429;-48
2023/04/26 05:30:48;;;;;;;7.63;4.50;;;4.10;3.00;;;;;;5033606;28;20418;-48
2023/04/26 05:33:14;;;;;;;12.70;4.97;;;4.00;99.90;;;;;;5033573;28;20195;-48
2023/04/26 05:35:40;;;;;;;10.33;4.83;;;4.00;1.00;;;;;;5033973;28;20428;-48
2023/04/26 05:38:06;;;;;;;17.13;5.53;;;4.10;1.00;;;;;;5033525;28;20405;-48
2023/04/26 05:40:31;;;;;;;13.93;4.87;;;4.30;64.70;;;;;;5033536;28;20219;-48
2023/04/26 05:42:57;;;;;;;14.63;5.80;;;4.60;1.00;;;;;;5033874;28;20179;-50
2023/04/26 05:45:23;;;;;;;14.60;5.40;;;4.90;99.90;;;;;;5033186;28;20256;-48
2023/04/26 05:47:48;;;;;;;13.23;5.50;;;5.20;99.90;;;;;;5033181;28;20234;-48
2023/04/26 05:50:14;;;;;;;10.50;6.23;;;5.30;1.00;;;;;;5033354;28;20182;-48
2023/04/26 05:52:40;;;;;;;9.40;5.37;;;5.30;99.90;;;;;;5033561;28;20179;-47
2023/04/26 05:55:06;;;;;;;11.10;4.97;;;5.20;1.00;;;;;;5033853;28;20459;-48
2023/04/26 05:57:31;;;;;;;13.97;5.20;;;5.10;99.90;;;;;;5033684;28;20183;-49
2023/04/26 05:59:57;;;;;;;10.77;5.20;;;5.10;99.90;;;;;;5033955;28;20610;-49
2023/04/26 06:02:23;;;;;;;12.63;4.93;;;5.10;99.90;;;;;;5033553;28;20175;-49
2023/04/26 06:04:48;;;;;;;21.27;6.03;;;5.10;99.90;;;;;;5032870;28;20207;-48
2023/04/26 06:07:15;;;;;;;13.97;6.23;;;5.10;99.90;;;;;;5033617;28;20180;-48
2023/04/26 06:09:41;;;;;;;13.20;5.40;;;5.30;99.90;;;;;;5032870;28;20191;-47
2023/04/26 06:12:07;;;;;;;19.93;5.57;;;5.50;1.00;;;;;;5033405;28;20500;-48
2023/04/26 06:14:33;;;;;;;11.07;5.23;;;5.80;1.00;;;;;;5033382;28;20468;-47
2023/04/26 06:16:58;;;;;;;9.80;5.10;;;6.00;99.90;;;;;;5032987;28;20183;-47
2023/04/26 06:19:24;;;;;;;9.33;5.10;;;6.20;99.90;;;;;;5033289;28;20205;-49
2023/04/26 06:21:51;;;;;;;11.00;4.77;;;6.20;99.90;;;;;;5033761;28;20185;-47
2023/04/26 06:24:16;;;;;;;9.10;4.70;;;6.30;99.90;;;;;;5033295;28;20272;-47
2023/04/26 06:26:42;;;;;;;7.40;4.40;;;6.50;99.90;;;;;;5065015;28;20501;-48
2023/04/26 06:29:07;;;;;;;14.93;4.23;;;6.60;99.90;;;;;;5033371;28;20653;-47
2023/04/26 06:31:33;;;;;;;10.67;4.50;;;6.80;99.90;;;;;;5032874;28;20176;-47
2023/04/26 06:33:58;;;;;;;10.10;4.20;;;6.90;78.50;;;;;;5033139;28;20273;-48
2023/04/26 06:36:25;;;;;;;10.80;4.53;;;7.00;26.10;;;;;;5032847;28;20179;-48
2023/04/26 06:38:50;;;;;;;17.03;5.00;;;7.20;38.60;;;;;;5031864;28;20183;-48
2023/04/26 06:41:16;;;;;;;10.67;4.43;;;7.40;28.10;;;;;;5032954;28;20410;-48
2023/04/26 06:43:41;;;;;;;11.07;5.07;;;7.40;1.00;;;;;;5033079;28;20290;-49
2023/04/26 06:46:07;;;;;;;10.17;4.03;;;7.50;1.00;;;;;;5032663;28;20201;-48
2023/04/26 06:48:33;;;;;;;13.53;4.70;;;7.60;1.00;;;;;;5033069;28;20742;-48
2023/04/26 06:51:03;;;;;;;10.03;4.27;;;7.90;1.00;;;;;;5033874;28;20265;-48
2023/04/26 06:53:28;;;;;;;8.97;4.60;;;8.20;1.00;;;;;;5033340;28;20619;-47
2023/04/26 06:55:56;;;;;;;15.30;4.27;;;8.50;1.00;;;;;;5033998;28;20514;-48
2023/04/26 06:58:21;;;;;;;8.53;4.60;;;8.70;1.00;;;;;;5033000;28;20194;-48
2023/04/26 07:00:47;;;;;;;15.83;4.60;;;8.70;1.00;;;;;;5033172;28;20813;-49
2023/04/26 07:03:13;;;;;;;17.07;3.80;;;8.80;1.00;;;;;;5033374;28;20191;-48
2023/04/26 07:05:39;;;;;;;6.77;3.47;;;8.80;1.00;;;;;;5032683;28;20637;-49
2023/04/26 07:08:05;;;;;;;16.13;3.90;;;9.00;1.00;;;;;;5033634;28;20591;-48
2023/04/26 07:10:30;;;;;;;10.97;4.00;;;9.30;1.00;;;;;;5032667;28;20434;-48
2023/04/26 07:12:56;;;;;;;9.00;3.33;;;9.40;1.00;;;;;;5033823;28;20220;-48
2023/04/26 07:15:22;;;;;;;9.73;3.73;;;9.50;1.00;;;;;;5031817;28;20195;-48
2023/04/26 07:17:47;;;;;;;19.57;4.80;;;9.50;1.00;;;;;;5033703;28;20218;-48
2023/04/26 07:20:18;;;;;;;13.27;3.67;;;9.30;1.00;;;;;;5032493;28;20179;-48
2023/04/26 07:22:44;;;;;;;6.93;3.17;;;9.50;1.00;;;;;;5032824;28;20209;-48
2023/04/26 07:25:09;;;;;;;9.83;3.13;;;9.50;1.00;;;;;;5033323;28;20472;-50
2023/04/26 07:27:35;;;;;;;7.23;3.30;;;9.60;1.00;;;;;;5032514;28;20221;-48
2023/04/26 07:30:01;;;;;;;9.43;3.83;;;9.90;1.00;;;;;;5033462;28;20198;-48
2023/04/26 07:32:26;;;;;;;11.57;3.70;;;10.10;1.00;;;;;;5032427;28;20226;-48
2023/04/26 07:34:52;;;;;;;9.87;3.97;;;10.30;1.00;;;;;;5032871;28;20695;-48
2023/04/26 07:37:18;;;;;;;8.03;3.50;;;10.60;1.00;;;;;;5032280;28;20199;-49
2023/04/26 07:39:43;;;;;;;8.10;3.17;;;10.70;1.00;;;;;;5033164;28;20183;-50
2023/04/26 07:42:09;;;;;;;6.97;3.03;;;10.70;1.00;;;;;;5032781;28;20606;-48
2023/04/26 07:44:34;;;;;;;8.97;2.73;;;10.90;1.00;;;;;;5032189;28;20220;-48
2023/04/26 07:47:00;;;;;;;8.57;3.13;;;10.90;1.00;;;;;;5032836;28;20664;-48
2023/04/26 07:49:25;;;;;;;7.73;2.67;;;10.70;1.00;;;;;;5032146;28;20194;-48
2023/04/26 07:51:51;;;;;;;6.73;3.30;;;10.50;1.00;;;;;;5032986;28;20212;-48
2023/04/26 07:54:17;;;;;;;10.93;2.67;;;9.70;1.00;;;;;;5032234;28;20714;-50
2023/04/26 07:56:42;;;;;;;5.20;2.53;;;9.10;1.00;;;;;;5032528;28;20213;-48
2023/04/26 07:59:08;;;;;;;4.70;2.40;;;8.50;1.00;;;;;;5031957;28;20190;-47
2023/04/26 08:01:33;;;;;;;8.70;2.43;;;7.60;1.00;;;;;;5032173;28;20184;-48
2023/04/26 08:03:59;;;;;;;5.77;2.30;;;6.80;1.00;;;;;;5032596;28;20579;-49
2023/04/26 08:06:25;;;;;;;3.70;2.20;;;6.20;1.00;;;;;;5031761;28;20650;-48
2023/04/26 08:08:52;;;;;;;3.57;2.50;;;6.00;99.90;;;;;;5032661;28;20202;-48
2023/04/26 08:11:18;;;;;;;6.77;2.50;;;6.10;99.90;;;;;;5031739;28;20442;-47
2023/04/26 08:13:43;;;;;;;7.27;2.73;;;6.30;99.90;;;;;;5032087;28;20460;-48
2023/04/26 08:16:09;;;;;;;12.70;2.50;;;6.60;99.90;;;;;;5032040;28;20193;-48
2023/04/26 08:18:34;;;;;;;7.30;2.53;;;6.90;99.90;;;;;;5031411;28;20184;-48
2023/04/26 08:21:01;;;;;;;5.20;2.70;;;7.10;99.90;;;;;;5032286;28;20529;-48
2023/04/26 08:23:27;;;;;;;4.63;3.20;;;7.20;90.50;;;;;;5031381;28;20187;-48
2023/04/26 08:25:53;;;;;;;7.57;2.60;;;7.40;92.20;;;;;;5032516;28;20442;-48
2023/04/26 08:28:19;;;;;;;5.37;2.57;;;7.80;99.90;;;;;;5031520;28;20248;-48
2023/04/26 08:30:44;;;;;;;6.33;2.90;;;8.20;1.00;;;;;;5032225;28;20211;-48
2023/04/26 08:33:10;;;;;;;9.23;2.57;;;8.70;1.00;;;;;;5031284;28;20186;-48
2023/04/26 08:35:35;;;;;;;7.37;3.03;;;8.80;1.00;;;;;;5031458;28;20695;-48
2023/04/26 08:38:01;;;;;;;6.40;3.30;;;8.80;1.00;;;;;;5031934;28;20640;-48
2023/04/26 08:40:27;;;;;;;9.37;3.23;;;9.20;1.00;;;;;;5031482;28;20425;-48
2023/04/26 08:42:52;;;;;;;6.03;3.00;;;9.90;1.00;;;;;;5031782;28;20197;-49
2023/04/26 08:45:20;;;;;;;11.30;3.27;;;10.60;1.00;;;;;;5030432;28;20242;-48
2023/04/26 08:47:51;;;;;;;11.47;3.10;;;11.40;1.00;;;;;;5030933;28;20261;-48
2023/04/26 08:50:22;;;;;;;7.13;2.80;;;12.20;1.00;;;;;;5031863;28;20450;-48
2023/04/26 08:52:50;;;;;;;11.57;3.20;;;12.70;1.00;;;;;;5031164;28;20426;-49
2023/04/26 08:55:17;;;;;;;8.20;3.70;;;13.10;1.00;;;;;;5031389;28;20446;-49
2023/04/26 08:57:45;;;;;;;8.60;3.47;;;13.30;1.00;;;;;;5031612;28;20434;-49
2023/04/26 09:00:12;;;;;;;7.73;3.10;;;12.70;1.00;;;;;;5030459;28;20429;-49
2023/04/26 09:02:44;;;;;;;11.70;4.40;;;12.10;1.00;;;;;;5031346;28;20978;-49
2023/04/26 09:05:10;;;;;;;9.07;4.00;;;11.50;1.00;;;;;;5031114;28;20458;-49
2023/04/26 09:07:43;;;;;;;8.17;3.23;;;11.30;1.00;;;;;;5030078;28;20428;-48
2023/04/26 09:10:11;;;;;;;9.57;3.60;;;11.30;1.00;;;;;;5029334;28;20802;-49
2023/04/26 09:12:37;;;;;;;12.93;3.80;;;10.90;1.00;;;;;;5032651;28;20446;-49
2023/04/26 09:15:06;;;;;;;8.50;3.30;;;10.50;1.00;;;;;;5030401;28;20458;-49
2023/04/26 09:17:36;;;;;;;9.03;3.63;;;10.10;1.00;;;;;;5031685;28;20438;-48
2023/04/26 09:20:21;;;;;;;6.83;2.93;;;10.50;1.00;;;;;;5030363;28;20438;-49
2023/04/26 09:22:48;;;;;;;7.80;3.37;;;11.40;1.00;;;;;;5032306;28;20442;-49
2023/04/26 09:25:16;;;;;;;8.40;3.03;;;12.20;1.00;;;;;;5029502;28;20474;-49
2023/04/26 09:27:43;;;;;;;7.63;2.83;;;12.60;1.00;;;;;;5031248;28;20440;-49
2023/04/26 09:30:11;;;;;;;8.87;2.40;;;12.20;1.00;;;;;;5031121;28;20434;-49
2023/04/26 09:32:47;;;;;;;5.77;1.53;;;11.10;1.00;;;;;;5030528;28;20441;-48
2023/04/26 09:35:34;;;;;;;3.90;1.50;;;10.30;1.00;;;;;;5028708;28;20472;-49
2023/04/26 09:38:01;;;;;;;4.27;1.77;;;9.80;1.00;;;;;;5028047;28;20452;-48
2023/04/26 09:40:29;;;;;;;4.80;1.70;;;10.00;1.00;;;;;;5030196;28;20528;-49
2023/04/26 09:42:57;;;;;;;1.57;1.30;;;10.60;1.00;;;;;;5030227;28;20438;-50
2023/04/26 09:45:23;;;;;;;3.50;1.30;;;11.00;1.00;;;;;;5030616;28;20502;-49
2023/04/26 09:47:50;;;;;;;1.97;1.20;;;11.30;1.00;;;;;;5029775;28;20489;-49
2023/04/26 09:50:26;;;;;;;3.70;1.50;;;11.80;1.00;;;;;;5030686;28;20535;-49
2023/04/26 09:52:52;;;;;;;2.10;1.50;;;12.60;1.00;;;;;;5029826;28;20438;-49
2023/04/26 09:55:28;;;;;;;3.53;1.67;;;13.00;1.00;;;;;;5030027;28;20492;-49
2023/04/26 09:57:59;;;;;;;4.70;1.80;;;13.30;1.00;;;;;;5027815;28;20727;-49
2023/04/26 10:00:25;;;;;;;4.67;1.60;;;12.80;1.00;;;;;;5030077;28;20945;-50
2023/04/26 10:02:54;;;;;;;3.40;1.70;;;12.40;1.00;;;;;;5029987;28;20841;-50
2023/04/26 10:05:21;;;;;;;4.03;1.90;;;12.00;1.00;;;;;;5030601;28;20533;-49
2023/04/26 10:07:48;;;;;;;3.07;1.70;;;11.50;1.00;;;;;;5030016;28;20440;-49
2023/04/26 10:10:14;;;;;;;4.00;2.23;;;10.80;1.00;;;;;;5030616;28;20438;-49
2023/04/26 10:12:41;;;;;;;3.50;1.67;;;10.40;1.00;;;;;;5029971;28;20445;-49
2023/04/26 10:15:09;;;;;;;9.67;1.80;;;10.00;1.00;;;;;;5030484;28;20942;-48
2023/04/26 10:17:34;;;;;;;5.90;1.77;;;9.80;1.00;;;;;;5030752;28;20832;-49
2023/04/26 10:20:03;;;;;;;11.07;2.30;;;9.60;1.00;;;;;;5032403;28;20440;-49
2023/04/26 10:22:35;;;;;;;9.07;2.23;;;9.60;1.00;;;;;;5031236;28;20294;-49
2023/04/26 10:25:01;;;;;;;7.83;2.00;;;10.30;1.00;;;;;;5032625;28;20461;-49
2023/04/26 10:27:42;;;;;;;6.80;1.93;;;10.90;1.00;;;;;;5034694;28;20499;-49
2023/04/26 10:30:11;;;;;;;8.13;2.20;;;11.20;1.00;;;;;;5031340;28;20191;-50
2023/04/26 10:32:54;;;;;;;4.63;1.70;;;11.40;1.00;;;;;;5033793;28;20446;-48
2023/04/26 10:35:21;;;;;;;3.73;1.70;;;12.10;1.00;;;;;;5033921;28;20531;-49
2023/04/26 10:37:59;;;;;;;5.37;1.70;;;12.90;1.00;;;;;;5032808;28;20852;-50
2023/04/26 10:40:28;;;;;;;7.93;2.10;;;13.20;1.00;;;;;;5016771;28;20475;-49
2023/04/26 10:43:15;;;;;;;2.50;1.73;;;13.80;1.00;;;;;;5016836;28;20510;-50
2023/04/26 10:45:45;;;;;;;5.43;1.93;;;14.80;1.00;;;;;;5016863;28;20473;-48
2023/04/26 10:48:26;;;;;;;6.13;2.27;;;14.50;1.00;;;;;;5016783;28;21002;-48
2023/04/26 10:51:12;;;;;;;3.00;1.70;;;13.50;1.00;;;;;;5016979;28;20494;-48
2023/04/26 10:53:43;;;;;;;4.67;1.80;;;12.30;1.00;;;;;;5016928;28;20433;-49
2023/04/26 10:56:31;;;;;;;5.03;2.00;;;11.10;1.00;;;;;;5017006;28;20477;-49
2023/04/26 10:59:08;;;;;;;8.23;1.83;;;10.20;1.00;;;;;;5012820;28;20464;-49
2023/04/26 11:01:35;;;;;;;5.77;2.20;;;9.60;1.00;;;;;;5016599;28;20905;-49
2023/04/26 11:04:08;;;;;;;3.57;1.87;;;9.60;1.00;;;;;;5016511;28;20463;-50
2023/04/26 11:06:53;;;;;;;8.00;2.20;;;9.90;1.00;;;;;;5017136;28;20427;-49
2023/04/26 11:09:38;;;;;;;6.63;2.30;;;9.90;1.00;;;;;;5016481;28;20816;-49
2023/04/26 11:12:05;;;;;;;6.93;2.07;;;10.00;1.00;;;;;;5016098;28;20951;-49
2023/04/26 11:14:34;;;;;;;4.43;2.00;;;9.90;1.00;;;;;;5016527;28;20429;-48
2023/04/26 11:17:04;;;;;;;3.07;2.30;;;9.90;1.00;;;;;;5021939;28;20441;-49
2023/04/26 11:19:31;;;;;;;7.10;2.37;;;10.30;1.00;;;;;;5032154;28;20431;-49
2023/04/26 11:21:58;;;;;;;3.53;1.70;;;10.80;1.00;;;;;;5033249;28;20525;-49
2023/04/26 11:24:24;;;;;;;5.87;2.03;;;10.90;1.00;;;;;;5033043;28;20524;-49
2023/04/26 11:26:51;;;;;;;11.60;2.23;;;10.70;1.00;;;;;;5032644;28;20445;-49
2023/04/26 11:29:18;;;;;;;5.03;2.20;;;10.50;1.00;;;;;;5033416;28;20445;-50
2023/04/26 11:31:51;;;;;;;4.40;1.80;;;10.30;1.00;;;;;;5031876;28;20451;-49
2023/04/26 11:34:18;;;;;;;2.93;1.50;;;10.60;1.00;;;;;;5033040;28;20439;-49
2023/04/26 11:36:45;;;;;;;6.30;1.83;;;10.90;1.00;;;;;;5033036;28;20480;-49
2023/04/26 11:39:11;;;;;;;5.63;1.53;;;10.80;1.00;;;;;;5032529;28;20429;-50
2023/04/26 11:41:36;;;;;;;6.67;1.77;;;10.40;1.00;;;;;;5033196;28;20437;-49
2023/04/26 11:44:03;;;;;;;6.87;1.53;;;9.90;1.00;;;;;;5032085;28;20631;-50
2023/04/26 11:46:28;;;;;;;3.50;1.63;;;9.40;1.00;;;;;;5033147;28;20206;-49
2023/04/26 11:48:55;;;;;;;5.13;1.87;;;9.40;1.00;;;;;;5032001;28;20819;-49
2023/04/26 11:51:21;;;;;;;5.60;1.90;;;9.80;1.00;;;;;;5032939;28;20222;-49
2023/04/26 11:53:46;;;;;;;3.17;1.63;;;10.00;1.00;;;;;;5032507;28;20476;-49
2023/04/26 11:56:16;;;;;;;4.27;1.57;;;11.10;1.00;;;;;;5032105;28;20518;-50
2023/04/26 11:58:49;;;;;;;6.30;2.20;;;12.70;1.00;;;;;;5032577;28;20183;-51
2023/04/26 12:01:25;;;;;;;7.00;2.20;;;14.20;1.00;;;;;;5031069;28;20444;-50
2023/04/26 12:03:52;;;;;;;10.67;2.20;;;15.10;1.00;;;;;;5032025;28;20459;-50
2023/04/26 12:06:19;;;;;;;4.93;1.53;;;15.60;1.00;;;;;;5032637;28;20519;-51
2023/04/26 12:08:51;;;;;;;4.30;1.63;;;16.00;1.00;;;;;;5035166;28;20901;-51
2023/04/26 12:11:17;;;;;;;4.67;1.90;;;15.90;1.00;;;;;;5035220;28;20422;-50
2023/04/26 12:13:44;;;;;;;3.87;1.50;;;14.90;1.00;;;;;;5035246;28;20418;-50
2023/04/26 12:16:11;;;;;;;7.53;1.60;;;14.10;1.00;;;;;;5034894;28;20924;-50
2023/04/26 12:18:37;;;;;;;6.00;1.70;;;13.00;1.00;;;;;;5035547;28;20418;-50
2023/04/26 12:21:03;;;;;;;7.67;1.60;;;13.00;1.00;;;;;;5034560;28;20572;-50
2023/04/26 12:23:38;;;;;;;7.90;1.60;;;13.70;1.00;;;;;;5034787;28;20179;-50
2023/04/26 12:26:03;;;;;;;4.67;1.30;;;14.70;1.00;;;;;;5066832;28;20269;-50
2023/04/26 12:28:29;;;;;;;4.17;1.43;;;15.30;1.00;;;;;;5034908;28;20501;-50
2023/04/26 12:30:55;;;;;;;3.10;1.40;;;15.60;1.00;;;;;;5035156;28;20191;-50
2023/04/26 12:33:21;;;;;;;8.33;1.83;;;14.90;1.00;;;;;;5066717;28;20426;-50
2023/04/26 12:35:49;;;;;;;10.23;1.60;;;14.70;1.00;;;;;;5034636;28;20273;-50
2023/04/26 12:38:14;;;;;;;4.97;1.43;;;13.60;1.00;;;;;;5066975;28;20428;-50
2023/04/26 12:40:41;;;;;;;6.63;2.07;;;12.40;1.00;;;;;;5034271;28;20477;-49
2023/04/26 12:43:07;;;;;;;9.40;1.60;;;11.50;1.00;;;;;;5033696;28;20192;-49
2023/04/26 12:45:32;;;;;;;3.17;1.10;;;11.10;1.00;;;;;;5034604;28;20465;-50
2023/04/26 12:47:58;;;;;;;4.87;1.90;;;10.90;1.00;;;;;;5034313;28;20236;-50
2023/04/26 12:50:23;;;;;;;5.40;1.47;;;10.60;1.00;;;;;;5034531;28;20278;-50
2023/04/26 12:52:49;;;;;;;2.53;1.30;;;10.70;1.00;;;;;;5034485;28;20176;-50
2023/04/26 12:55:15;;;;;;;2.43;1.10;;;10.70;1.00;;;;;;5034539;28;20175;-50